createdAt,value
2018-06-30T00:00:27.257Z,66.20
2018-06-30T00:02:59.750Z,66.20
2018-06-30T00:05:36.738Z,66.30
2018-06-30T00:08:13.340Z,66.50
2018-06-30T00:36:22.249Z,67.60
2018-06-30T00:44:39.670Z,68.00
2018-06-30T00:54:12.535Z,68.10
2018-06-30T00:56:59.983Z,68.00
2018-06-30T00:59:38.611Z,68.20
2018-06-30T01:02:08.938Z,68.60
2018-06-30T01:04:50.510Z,68.40
2018-06-30T01:07:25.898Z,68.50
2018-06-30T01:09:54.594Z,68.60
2018-06-30T01:12:23.288Z,68.60
2018-06-30T01:14:52.024Z,68.60
2018-06-30T01:17:20.789Z,69.30
2018-06-30T01:19:49.622Z,68.70
2018-06-30T01:22:18.320Z,68.80
2018-06-30T01:24:47.002Z,68.70
2018-06-30T01:27:15.826Z,68.80
2018-06-30T01:29:44.566Z,68.80
2018-06-30T01:32:13.367Z,68.80
2018-06-30T01:34:42.031Z,68.80
2018-06-30T01:37:10.787Z,68.80
2018-06-30T01:39:39.478Z,68.90
2018-06-30T01:42:08.194Z,69.00
2018-06-30T01:44:36.874Z,69.00
2018-06-30T01:47:05.547Z,69.00
2018-06-30T01:49:34.222Z,68.90
2018-06-30T01:52:02.886Z,69.10
2018-06-30T01:54:33.714Z,69.20
2018-06-30T01:57:02.423Z,69.20
2018-06-30T01:59:31.350Z,69.20
2018-06-30T02:02:00.090Z,69.20
2018-06-30T02:04:29.356Z,69.20
2018-06-30T02:06:58.357Z,69.20
2018-06-30T02:09:27.269Z,69.20
2018-06-30T02:11:56.229Z,69.20
2018-06-30T02:14:24.961Z,69.70
2018-06-30T02:16:53.643Z,70.20
2018-06-30T02:19:23.328Z,69.50
2018-06-30T02:21:51.998Z,69.40
2018-06-30T02:24:20.685Z,69.60
2018-06-30T02:26:49.414Z,69.60
2018-06-30T02:29:18.094Z,69.50
2018-06-30T02:31:46.974Z,69.60
2018-06-30T02:34:15.637Z,69.80
2018-06-30T02:36:44.327Z,69.70
2018-06-30T02:39:13.285Z,69.80
2018-06-30T02:41:41.909Z,69.80
2018-06-30T02:44:10.572Z,69.80
2018-06-30T02:46:39.306Z,69.80
2018-06-30T02:49:07.998Z,69.80
2018-06-30T02:51:36.639Z,69.70
2018-06-30T02:54:05.503Z,69.80
2018-06-30T02:56:34.158Z,69.80
2018-06-30T02:59:02.812Z,70.00
2018-06-30T03:01:31.486Z,69.90
2018-06-30T03:04:00.165Z,70.00
2018-06-30T03:06:29.345Z,70.00
2018-06-30T03:08:58.010Z,69.90
2018-06-30T03:11:26.658Z,70.00
2018-06-30T03:13:55.619Z,70.00
2018-06-30T03:16:24.254Z,70.10
2018-06-30T03:18:52.921Z,70.10
2018-06-30T03:21:21.623Z,70.20
2018-06-30T03:23:50.343Z,70.20
2018-06-30T03:26:19.024Z,70.20
2018-06-30T03:28:47.682Z,70.30
2018-06-30T03:31:16.373Z,70.30
2018-06-30T03:33:45.043Z,70.40
2018-06-30T03:36:13.710Z,70.30
2018-06-30T03:38:42.388Z,70.50
2018-06-30T03:41:11.081Z,70.30
2018-06-30T03:43:39.745Z,70.30
2018-06-30T03:46:08.458Z,70.20
2018-06-30T03:48:37.143Z,70.20
2018-06-30T03:51:06.226Z,70.20
2018-06-30T03:53:34.905Z,70.10
2018-06-30T03:56:03.703Z,70.20
2018-06-30T03:58:32.462Z,70.30
2018-06-30T04:01:01.144Z,70.30
2018-06-30T04:03:29.831Z,70.20
2018-06-30T04:05:58.563Z,70.20
2018-06-30T04:08:27.243Z,70.20
2018-06-30T04:10:55.956Z,70.10
2018-06-30T04:13:24.695Z,70.20
2018-06-30T04:15:53.773Z,70.00
2018-06-30T04:18:22.441Z,69.90
2018-06-30T04:20:51.101Z,69.70
2018-06-30T04:23:19.808Z,69.70
2018-06-30T04:25:48.485Z,69.60
2018-06-30T04:28:17.178Z,69.60
2018-06-30T04:30:45.845Z,69.40
2018-06-30T04:33:14.767Z,69.30
2018-06-30T04:35:43.418Z,69.30
2018-06-30T04:38:12.096Z,69.30
2018-06-30T04:40:40.817Z,69.20
2018-06-30T04:43:09.484Z,68.90
2018-06-30T04:45:38.183Z,68.50
2018-06-30T04:48:07.319Z,68.50
2018-06-30T04:50:36.171Z,68.30
2018-06-30T04:53:10.226Z,68.10
2018-06-30T04:55:39.155Z,68.40
2018-06-30T04:58:07.877Z,67.60
2018-06-30T05:00:36.580Z,67.40
2018-06-30T05:03:05.439Z,67.20
2018-06-30T05:05:34.239Z,66.90
2018-06-30T05:08:02.913Z,66.70
2018-06-30T05:10:31.608Z,67.30
2018-06-30T05:13:00.398Z,66.20
2018-06-30T05:15:29.170Z,65.70
2018-06-30T05:17:57.888Z,65.80
2018-06-30T05:20:26.651Z,65.90
2018-06-30T05:22:56.371Z,65.50
2018-06-30T05:25:25.222Z,65.00
2018-06-30T05:27:53.942Z,64.90
2018-06-30T05:30:22.728Z,64.50
2018-06-30T05:32:51.644Z,64.30
2018-06-30T05:35:20.418Z,63.80
2018-06-30T05:37:49.173Z,63.70
2018-06-30T05:40:18.065Z,63.40
2018-06-30T05:42:46.751Z,62.60
2018-06-30T05:45:15.427Z,62.50
2018-06-30T05:47:44.229Z,62.30
2018-06-30T05:50:12.977Z,62.10
2018-06-30T05:52:41.659Z,62.70
2018-06-30T05:55:10.497Z,61.30
2018-06-30T05:57:39.250Z,61.10
2018-06-30T06:00:08.117Z,60.60
2018-06-30T06:02:36.764Z,59.60
2018-06-30T06:05:06.287Z,59.30
2018-06-30T06:07:35.122Z,59.40
2018-06-30T06:10:03.895Z,59.20
2018-06-30T06:12:32.646Z,59.00
2018-06-30T06:15:01.424Z,59.10
2018-06-30T06:17:30.060Z,59.00
2018-06-30T06:20:00.194Z,58.30
2018-06-30T06:22:28.878Z,58.40
2018-06-30T06:24:57.695Z,57.70
2018-06-30T06:27:26.375Z,56.50
2018-06-30T06:30:08.010Z,54.20
2018-06-30T06:32:37.008Z,54.60
2018-06-30T06:37:39.663Z,54.00
2018-06-30T06:42:38.035Z,46.70
2018-06-30T06:45:06.804Z,47.40
2018-06-30T06:47:36.339Z,48.50
2018-06-30T06:50:05.029Z,49.60
2018-06-30T06:52:33.838Z,50.60
2018-06-30T06:55:03.494Z,49.80
2018-06-30T06:57:33.046Z,50.30
2018-06-30T07:00:01.874Z,50.80
2018-06-30T07:02:30.617Z,51.30
2018-06-30T07:04:59.340Z,51.70
2018-06-30T07:07:28.026Z,51.80
2018-06-30T07:09:56.729Z,52.10
2018-06-30T07:12:25.384Z,52.60
2018-06-30T07:14:54.236Z,52.50
2018-06-30T07:17:22.932Z,52.70
2018-06-30T07:19:51.834Z,52.60
2018-06-30T07:22:20.894Z,52.20
2018-06-30T07:24:49.753Z,51.20
2018-06-30T07:27:18.600Z,51.40
2018-06-30T07:29:50.397Z,50.70
2018-06-30T07:32:19.550Z,50.70
2018-06-30T07:34:53.619Z,50.80
2018-06-30T07:37:29.572Z,50.60
2018-06-30T07:39:59.098Z,50.70
2018-06-30T07:42:27.937Z,50.30
2018-06-30T07:44:56.642Z,51.20
2018-06-30T07:50:39.484Z,51.10
2018-06-30T07:53:09.168Z,50.80
2018-06-30T07:55:45.126Z,51.40
2018-06-30T07:58:14.310Z,51.40
2018-06-30T08:00:43.514Z,51.30
2018-06-30T08:03:13.066Z,51.50
2018-06-30T08:05:42.166Z,51.20
2018-06-30T08:08:11.774Z,51.20
2018-06-30T08:10:41.389Z,51.10
2018-06-30T08:13:10.845Z,51.00
2018-06-30T08:15:40.247Z,50.60
2018-06-30T08:18:11.625Z,51.10
2018-06-30T08:23:34.225Z,50.50
2018-06-30T08:26:03.260Z,49.70
2018-06-30T08:28:32.079Z,49.40
2018-06-30T08:31:00.834Z,48.40
2018-06-30T08:33:29.601Z,48.40
2018-06-30T08:36:02.660Z,47.60
2018-06-30T08:38:31.504Z,46.80
2018-06-30T08:41:00.339Z,46.00
2018-06-30T08:43:29.366Z,45.10
2018-06-30T08:45:58.534Z,45.00
2018-06-30T08:48:27.736Z,44.80
2018-06-30T08:51:14.698Z,45.00
2018-06-30T08:53:43.530Z,44.30
2018-06-30T08:56:12.370Z,44.50
2018-06-30T08:58:41.765Z,44.60
2018-06-30T09:01:10.913Z,44.50
2018-06-30T09:03:51.694Z,44.30
2018-06-30T09:06:20.766Z,44.50
2018-06-30T09:08:49.756Z,44.20
2018-06-30T09:11:29.469Z,44.00
2018-06-30T09:13:58.484Z,43.70
2018-06-30T09:16:27.314Z,43.20
2018-06-30T09:28:17.610Z,43.90
2018-06-30T09:33:40.223Z,43.60
2018-06-30T09:36:09.734Z,42.60
2018-06-30T09:38:41.984Z,43.10
2018-06-30T09:41:11.533Z,41.60
2018-06-30T09:43:40.270Z,42.50
2018-06-30T09:46:10.776Z,41.20
2018-06-30T09:48:39.444Z,40.10
2018-06-30T09:51:08.251Z,38.60
2018-06-30T09:53:38.965Z,38.80
2018-06-30T09:56:07.687Z,37.90
2018-06-30T09:58:36.595Z,37.10
2018-06-30T10:01:09.358Z,36.90
2018-06-30T10:03:39.104Z,35.10
2018-06-30T10:06:08.143Z,34.80
2018-06-30T10:08:38.965Z,34.80
2018-06-30T10:11:07.860Z,35.10
2018-06-30T10:13:40.289Z,32.60
2018-06-30T10:16:09.941Z,32.40
2018-06-30T10:18:38.758Z,33.50
2018-06-30T10:21:11.249Z,32.30
2018-06-30T10:23:43.189Z,32.10
2018-06-30T10:26:22.032Z,32.50
2018-06-30T10:34:37.622Z,34.50
2018-06-30T10:37:06.370Z,34.90
2018-06-30T10:39:41.358Z,32.90
2018-06-30T10:42:10.181Z,33.30
2018-06-30T10:44:38.936Z,33.50
2018-06-30T10:47:07.919Z,33.70
2018-06-30T10:49:37.037Z,32.90
2018-06-30T10:52:06.101Z,33.80
2018-06-30T10:54:35.372Z,34.30
2018-06-30T10:57:14.952Z,35.00
2018-06-30T10:59:44.702Z,35.30
2018-06-30T11:02:13.609Z,34.40
2018-06-30T11:04:43.069Z,33.80
2018-06-30T11:07:15.910Z,33.00
2018-06-30T11:09:55.884Z,34.00
2018-06-30T11:12:28.128Z,33.60
2018-06-30T11:14:58.657Z,34.00
2018-06-30T11:17:40.620Z,32.10
2018-06-30T11:20:09.595Z,33.70
2018-06-30T11:22:39.281Z,33.40
2018-06-30T11:25:10.557Z,32.80
2018-06-30T11:28:16.295Z,31.70
2018-06-30T11:30:45.815Z,32.30
2018-06-30T11:33:14.895Z,32.00
2018-06-30T11:35:47.254Z,31.50
2018-06-30T11:38:16.264Z,32.00
2018-06-30T11:40:45.022Z,32.10
2018-06-30T11:43:15.095Z,31.00
2018-06-30T11:45:44.082Z,30.40
2018-06-30T11:48:14.684Z,31.40
2018-06-30T11:50:43.456Z,30.30
2018-06-30T11:53:12.231Z,30.40
2018-06-30T11:55:41.277Z,30.30
2018-06-30T11:58:10.153Z,30.00
2018-06-30T12:00:39.038Z,29.20
2018-06-30T12:03:07.981Z,29.50
2018-06-30T12:05:36.744Z,29.20
2018-06-30T12:08:06.362Z,28.90
2018-06-30T12:10:35.072Z,28.70
2018-06-30T12:13:29.825Z,28.40
2018-06-30T12:16:03.705Z,28.50
2018-06-30T12:18:43.560Z,28.50
2018-06-30T12:21:12.250Z,27.80
2018-06-30T12:23:40.891Z,27.50
2018-06-30T12:26:09.639Z,27.50
2018-06-30T12:31:09.450Z,26.80
2018-06-30T12:33:39.222Z,27.30
2018-06-30T12:36:10.212Z,27.90
2018-06-30T12:38:40.582Z,27.90
2018-06-30T12:41:10.374Z,27.50
2018-06-30T12:43:40.594Z,27.90
2018-06-30T12:46:11.538Z,27.80
2018-06-30T12:48:40.453Z,27.40
2018-06-30T12:51:09.385Z,27.20
2018-06-30T12:53:41.565Z,27.50
2018-06-30T12:56:10.409Z,26.50
2018-06-30T12:58:39.477Z,26.20
2018-06-30T13:01:08.175Z,26.10
2018-06-30T13:03:37.017Z,26.70
2018-06-30T13:06:06.422Z,26.80
2018-06-30T13:08:35.166Z,27.90
2018-06-30T13:13:39.009Z,28.30
2018-06-30T13:16:08.094Z,28.30
2018-06-30T13:18:37.914Z,28.30
2018-06-30T13:21:08.271Z,28.20
2018-06-30T13:23:36.994Z,27.80
2018-06-30T13:26:10.428Z,27.30
2018-06-30T13:28:39.534Z,27.70
2018-06-30T13:31:08.616Z,27.20
2018-06-30T13:33:37.718Z,27.10
2018-06-30T13:36:13.186Z,27.10
2018-06-30T13:38:42.309Z,27.90
2018-06-30T13:41:15.319Z,29.00
2018-06-30T13:43:45.501Z,28.90
2018-06-30T13:46:14.471Z,29.00
2018-06-30T13:48:43.442Z,28.40
2018-06-30T13:51:12.847Z,28.40
2018-06-30T13:53:42.099Z,29.20
2018-06-30T13:56:11.120Z,29.20
2018-06-30T13:58:40.824Z,28.50
2018-06-30T14:01:09.849Z,29.30
2018-06-30T14:03:39.574Z,28.80
2018-06-30T14:09:09.908Z,28.80
2018-06-30T14:11:38.581Z,29.50
2018-06-30T14:14:07.493Z,29.90
2018-06-30T14:16:37.226Z,29.60
2018-06-30T14:19:06.446Z,30.00
2018-06-30T14:21:35.493Z,30.50
2018-06-30T14:24:05.066Z,29.70
2018-06-30T14:26:35.867Z,30.00
2018-06-30T14:29:05.930Z,29.90
2018-06-30T14:31:34.904Z,29.90
2018-06-30T14:36:42.897Z,30.00
2018-06-30T14:39:13.374Z,30.20
2018-06-30T14:41:42.771Z,30.00
2018-06-30T14:44:22.436Z,29.20
2018-06-30T14:46:56.626Z,30.20
2018-06-30T14:49:26.317Z,29.80
2018-06-30T14:51:56.697Z,29.30
2018-06-30T14:54:25.690Z,29.60
2018-06-30T14:56:55.163Z,29.20
2018-06-30T14:59:30.349Z,29.50
2018-06-30T15:01:59.025Z,29.30
2018-06-30T15:04:27.741Z,29.50
2018-06-30T15:06:56.919Z,29.40
2018-06-30T15:09:25.698Z,29.40
2018-06-30T15:11:55.962Z,29.50
2018-06-30T15:14:33.365Z,29.20
2018-06-30T15:17:02.684Z,28.90
2018-06-30T15:19:33.474Z,29.10
2018-06-30T15:22:18.642Z,28.90
2018-06-30T15:24:49.993Z,29.10
2018-06-30T15:27:22.022Z,28.60
2018-06-30T15:30:13.112Z,28.70
2018-06-30T15:32:53.764Z,28.40
2018-06-30T15:35:28.664Z,28.90
2018-06-30T15:37:59.198Z,28.70
2018-06-30T15:40:33.606Z,28.90
2018-06-30T15:43:05.806Z,29.20
2018-06-30T15:45:43.000Z,28.60
2018-06-30T15:48:15.072Z,28.30
2018-06-30T15:51:06.948Z,28.80
2018-06-30T15:53:37.128Z,29.20
2018-06-30T15:56:07.510Z,29.20
2018-06-30T15:58:36.796Z,29.10
2018-06-30T16:03:40.388Z,28.60
2018-06-30T16:06:15.587Z,28.10
2018-06-30T16:08:44.349Z,28.80
2018-06-30T16:11:13.202Z,28.70
2018-06-30T16:13:41.957Z,28.40
2018-06-30T16:16:11.660Z,28.50
2018-06-30T16:18:42.619Z,28.10
2018-06-30T16:21:11.320Z,28.60
2018-06-30T16:23:54.677Z,28.60
2018-06-30T16:26:24.671Z,28.50
2018-06-30T16:28:53.810Z,28.70
2018-06-30T16:31:24.052Z,29.10
2018-06-30T16:33:53.021Z,29.30
2018-06-30T16:36:22.684Z,28.60
2018-06-30T16:38:52.345Z,28.90
2018-06-30T16:41:21.519Z,28.90
2018-06-30T16:43:50.485Z,29.10
2018-06-30T16:46:19.325Z,28.80
2018-06-30T16:48:47.994Z,29.10
2018-06-30T16:51:20.053Z,29.10
2018-06-30T16:53:51.366Z,29.10
2018-06-30T16:59:19.598Z,28.90
2018-06-30T17:01:52.500Z,29.10
2018-06-30T17:04:23.678Z,29.10
2018-06-30T17:06:52.901Z,29.90
2018-06-30T17:09:21.854Z,29.20
2018-06-30T17:11:52.887Z,29.40
2018-06-30T17:14:24.348Z,28.90
2018-06-30T17:25:33.315Z,28.30
2018-06-30T17:28:02.130Z,28.80
2018-06-30T17:30:39.853Z,28.80
2018-06-30T17:33:11.672Z,28.80
2018-06-30T17:35:40.534Z,28.50
2018-06-30T17:38:09.925Z,28.90
2018-06-30T17:40:38.736Z,29.30
2018-06-30T17:43:07.441Z,28.70
2018-06-30T17:45:36.151Z,29.50
2018-06-30T17:48:04.972Z,29.30
2018-06-30T17:53:02.411Z,29.70
2018-06-30T17:55:31.122Z,29.70
2018-06-30T17:57:59.792Z,29.70
2018-06-30T18:00:28.457Z,29.80
2018-06-30T18:02:57.129Z,29.70
2018-06-30T18:05:25.779Z,29.80
2018-06-30T18:07:54.502Z,30.60
2018-06-30T18:10:23.200Z,29.70
2018-06-30T18:12:51.922Z,29.40
2018-06-30T18:15:20.579Z,29.90
2018-06-30T18:17:49.276Z,29.80
2018-06-30T18:20:17.934Z,29.50
2018-06-30T18:22:49.816Z,30.50
2018-06-30T18:25:18.496Z,30.00
2018-06-30T18:27:47.146Z,29.70
2018-06-30T18:30:15.797Z,30.10
2018-06-30T18:32:44.489Z,30.40
2018-06-30T18:35:13.146Z,30.00
2018-06-30T18:37:41.846Z,30.00
2018-06-30T18:40:10.497Z,29.80
2018-06-30T18:42:41.824Z,30.10
2018-06-30T18:45:12.972Z,29.30
2018-06-30T18:47:41.993Z,29.30
2018-06-30T18:50:10.980Z,28.90
2018-06-30T18:52:39.724Z,29.30
2018-06-30T18:55:08.432Z,29.20
2018-06-30T18:57:37.084Z,29.00
2018-06-30T19:00:07.716Z,29.40
2018-06-30T19:02:36.576Z,29.30
2018-06-30T19:05:05.787Z,29.40
2018-06-30T19:07:34.510Z,29.00
2018-06-30T19:10:03.631Z,29.30
2018-06-30T19:12:32.302Z,29.80
2018-06-30T19:15:01.523Z,30.00
2018-06-30T19:18:50.082Z,30.90
2018-06-30T19:24:12.710Z,31.50
2018-06-30T19:27:05.588Z,32.20
2018-06-30T19:32:46.118Z,32.10
2018-06-30T19:35:58.266Z,32.10
2018-06-30T19:41:21.390Z,33.20
2018-06-30T19:43:50.529Z,32.50
2018-06-30T19:46:19.183Z,32.70
2018-06-30T19:48:50.336Z,33.20
2018-06-30T19:51:20.553Z,33.10
2018-06-30T19:53:49.402Z,33.50
2018-06-30T19:56:18.248Z,33.30
2018-06-30T19:58:52.637Z,33.50
2018-06-30T20:01:22.407Z,33.60
2018-06-30T20:03:51.123Z,34.00
2018-06-30T20:06:19.799Z,33.90
2018-06-30T20:08:48.629Z,34.40
2018-06-30T20:11:17.521Z,33.80
2018-06-30T20:13:46.391Z,34.30
2018-06-30T20:16:15.155Z,34.30
2018-06-30T20:18:48.042Z,34.60
2018-06-30T20:21:17.219Z,35.10
2018-06-30T20:23:45.984Z,34.50
2018-06-30T20:26:14.955Z,34.80
2018-06-30T20:28:43.700Z,34.80
2018-06-30T20:31:12.575Z,34.90
2018-06-30T20:33:41.347Z,36.00
2018-06-30T20:36:10.208Z,35.60
2018-06-30T20:38:39.464Z,35.70
2018-06-30T20:41:08.146Z,35.40
2018-06-30T20:43:36.847Z,35.60
2018-06-30T20:46:05.906Z,35.70
2018-06-30T20:48:34.685Z,35.60
2018-06-30T20:51:03.435Z,35.70
2018-06-30T20:53:32.251Z,35.90
2018-06-30T20:56:01.405Z,36.50
2018-06-30T20:58:30.320Z,36.20
2018-06-30T21:03:30.482Z,36.30
2018-06-30T21:06:06.507Z,36.10
2018-06-30T21:11:03.621Z,36.60
2018-06-30T21:13:32.784Z,36.90
2018-06-30T21:16:01.625Z,37.20
2018-06-30T21:18:30.415Z,36.40
2018-06-30T21:20:59.327Z,36.20
2018-06-30T21:23:30.304Z,36.40
2018-06-30T21:25:59.365Z,36.60
2018-06-30T21:28:28.154Z,36.50
2018-06-30T21:30:57.171Z,36.60
2018-06-30T21:33:26.401Z,36.80
2018-06-30T21:35:55.641Z,36.90
2018-06-30T21:38:24.465Z,36.90
2018-06-30T21:40:53.969Z,37.10
2018-06-30T21:43:25.222Z,36.80
2018-06-30T21:45:54.109Z,37.00
2018-06-30T21:48:22.873Z,37.00
2018-06-30T21:50:51.916Z,36.80
2018-06-30T21:53:20.626Z,37.90
2018-06-30T21:55:49.282Z,37.00
2018-06-30T21:58:17.964Z,37.20
2018-06-30T22:00:51.898Z,36.90
2018-06-30T22:03:26.187Z,37.10
2018-06-30T22:05:56.758Z,37.20
2018-06-30T22:08:25.942Z,36.90
2018-06-30T22:10:59.691Z,36.80
2018-06-30T22:13:28.818Z,37.30
2018-06-30T22:15:57.821Z,37.10
2018-06-30T22:18:26.956Z,37.40
2018-06-30T22:20:55.885Z,37.40
2018-06-30T22:25:53.473Z,37.20
2018-06-30T22:28:22.911Z,37.50
2018-06-30T22:30:54.824Z,37.20
2018-06-30T22:33:29.495Z,37.20
2018-06-30T22:35:59.990Z,37.50
2018-06-30T22:38:31.235Z,37.40
2018-06-30T22:41:06.954Z,37.50
2018-06-30T22:43:35.651Z,37.80
2018-06-30T22:46:04.345Z,37.30
2018-06-30T22:48:33.106Z,38.00
2018-06-30T22:51:01.771Z,38.10
2018-06-30T22:53:30.512Z,38.20
2018-06-30T22:55:59.151Z,38.20
2018-06-30T22:58:28.845Z,38.30
2018-06-30T23:00:59.726Z,38.80
2018-06-30T23:03:36.134Z,38.10
2018-06-30T23:06:26.246Z,38.20
2018-06-30T23:08:57.120Z,38.70
2018-06-30T23:11:25.864Z,38.30
2018-06-30T23:13:58.499Z,39.10
2018-06-30T23:16:27.585Z,38.30
2018-06-30T23:18:56.971Z,38.40
2018-06-30T23:21:25.674Z,38.60
2018-06-30T23:24:00.741Z,38.40
2018-06-30T23:28:58.429Z,38.40
2018-06-30T23:31:27.507Z,38.60
2018-06-30T23:34:01.225Z,38.60
2018-06-30T23:36:30.118Z,38.60
2018-06-30T23:38:59.360Z,39.10
2018-06-30T23:41:30.354Z,39.40
2018-06-30T23:44:00.519Z,39.30
2018-06-30T23:46:29.311Z,39.00
2018-06-30T23:48:58.003Z,39.00
2018-06-30T23:51:26.901Z,39.40
2018-06-30T23:53:57.976Z,39.30
2018-06-30T23:56:26.716Z,39.50
2018-06-30T23:59:10.801Z,39.60
